Terminal Aerodrome Forecast
Issued by NWS Tampa Bay Area, FL

Home | Current Version | Previous Version | Text Only | Print | Product List | Glossary On
Versions: 1 2 3 4 5 6 7 8 9 10 11 12 13 14 15 16 17 18 19 20 21 22 23 24 25 26 27
000
FTUS42 KTBW 232337
TAFTPA
TAF
KTPA 232337Z 2400/2506 31008KT P6SM VCSH SCT025 BKN050 BKN250
     FM240100 VRB03KT P6SM SCT030 SCT100 SCT250
     FM241400 14006KT P6SM SCT020 BKN250
     FM241800 24006KT P6SM VCTS SCT025CB BKN050
     FM242200 29008KT P6SM VCTS FEW025CB BKN100
     FM250100 26007KT P6SM SCT040 BKN200=

USA.gov is the U.S. government's official web portal to all federal, state and local government web resources and services.